sensor_id;sensor_type;location;lat;lon;timestamp;P1;durP1;ratioP1;P2;durP2;ratioP2
20844;SDS011;10583;49.084;8.646;2023-05-24T00:02:06;3.07;;;3.07;;
20844;SDS011;10583;49.084;8.646;2023-05-24T00:04:38;3.23;;;3.23;;
20844;SDS011;10583;49.084;8.646;2023-05-24T00:07:05;3.23;;;3.23;;
20844;SDS011;10583;49.084;8.646;2023-05-24T00:09:32;3.43;;;3.43;;
20844;SDS011;10583;49.084;8.646;2023-05-24T00:12:00;3.27;;;3.27;;
20844;SDS011;10583;49.084;8.646;2023-05-24T00:14:27;2.87;;;2.87;;
20844;SDS011;10583;49.084;8.646;2023-05-24T00:16:54;3.30;;;3.30;;
20844;SDS011;10583;49.084;8.646;2023-05-24T00:19:21;3.57;;;3.57;;
20844;SDS011;10583;49.084;8.646;2023-05-24T00:21:48;3.30;;;3.30;;
20844;SDS011;10583;49.084;8.646;2023-05-24T00:24:15;3.53;;;3.53;;
20844;SDS011;10583;49.084;8.646;2023-05-24T00:26:42;3.50;;;3.50;;
20844;SDS011;10583;49.084;8.646;2023-05-24T00:29:11;3.50;;;3.50;;
20844;SDS011;10583;49.084;8.646;2023-05-24T00:31:38;3.00;;;3.00;;
20844;SDS011;10583;49.084;8.646;2023-05-24T00:34:05;3.03;;;3.03;;
20844;SDS011;10583;49.084;8.646;2023-05-24T00:36:32;3.73;;;3.73;;
20844;SDS011;10583;49.084;8.646;2023-05-24T00:38:59;3.00;;;3.00;;
20844;SDS011;10583;49.084;8.646;2023-05-24T00:41:26;3.40;;;3.40;;
20844;SDS011;10583;49.084;8.646;2023-05-24T00:43:53;3.40;;;3.40;;
20844;SDS011;10583;49.084;8.646;2023-05-24T00:46:24;3.20;;;3.20;;
20844;SDS011;10583;49.084;8.646;2023-05-24T00:48:53;3.50;;;3.50;;
20844;SDS011;10583;49.084;8.646;2023-05-24T00:51:22;3.23;;;3.23;;
20844;SDS011;10583;49.084;8.646;2023-05-24T00:53:52;3.60;;;3.60;;
20844;SDS011;10583;49.084;8.646;2023-05-24T00:56:19;3.30;;;3.30;;
20844;SDS011;10583;49.084;8.646;2023-05-24T00:58:47;3.30;;;3.30;;
20844;SDS011;10583;49.084;8.646;2023-05-24T01:01:14;3.40;;;3.40;;
20844;SDS011;10583;49.084;8.646;2023-05-24T01:03:43;3.33;;;3.33;;
20844;SDS011;10583;49.084;8.646;2023-05-24T01:06:10;3.73;;;3.73;;
20844;SDS011;10583;49.084;8.646;2023-05-24T01:08:53;3.47;;;3.47;;
20844;SDS011;10583;49.084;8.646;2023-05-24T01:11:34;3.40;;;3.40;;
20844;SDS011;10583;49.084;8.646;2023-05-24T01:14:11;3.97;;;3.97;;
20844;SDS011;10583;49.084;8.646;2023-05-24T01:16:47;4.20;;;4.20;;
20844;SDS011;10583;49.084;8.646;2023-05-24T01:22:28;4.00;;;4.00;;
20844;SDS011;10583;49.084;8.646;2023-05-24T01:25:21;3.77;;;3.77;;
20844;SDS011;10583;49.084;8.646;2023-05-24T01:27:55;4.00;;;4.00;;
20844;SDS011;10583;49.084;8.646;2023-05-24T01:30:25;4.20;;;4.20;;
20844;SDS011;10583;49.084;8.646;2023-05-24T01:32:53;4.00;;;4.00;;
20844;SDS011;10583;49.084;8.646;2023-05-24T01:35:20;3.73;;;3.73;;
20844;SDS011;10583;49.084;8.646;2023-05-24T01:37:47;3.97;;;3.97;;
20844;SDS011;10583;49.084;8.646;2023-05-24T01:40:13;4.00;;;4.00;;
20844;SDS011;10583;49.084;8.646;2023-05-24T01:42:43;4.33;;;4.33;;
20844;SDS011;10583;49.084;8.646;2023-05-24T01:45:18;4.13;;;4.13;;
20844;SDS011;10583;49.084;8.646;2023-05-24T01:48:06;3.90;;;3.90;;
20844;SDS011;10583;49.084;8.646;2023-05-24T01:50:44;3.83;;;3.83;;
20844;SDS011;10583;49.084;8.646;2023-05-24T01:53:16;4.17;;;4.17;;
20844;SDS011;10583;49.084;8.646;2023-05-24T01:55:47;4.60;;;4.60;;
20844;SDS011;10583;49.084;8.646;2023-05-24T01:58:16;4.50;;;4.50;;
20844;SDS011;10583;49.084;8.646;2023-05-24T02:00:48;4.20;;;4.20;;
20844;SDS011;10583;49.084;8.646;2023-05-24T02:03:16;4.23;;;4.23;;
20844;SDS011;10583;49.084;8.646;2023-05-24T02:05:43;4.20;;;4.20;;
20844;SDS011;10583;49.084;8.646;2023-05-24T02:08:10;3.87;;;3.87;;
20844;SDS011;10583;49.084;8.646;2023-05-24T02:10:37;4.83;;;4.83;;
20844;SDS011;10583;49.084;8.646;2023-05-24T02:13:04;4.27;;;4.27;;
20844;SDS011;10583;49.084;8.646;2023-05-24T02:15:32;4.30;;;4.30;;
20844;SDS011;10583;49.084;8.646;2023-05-24T02:18:00;4.40;;;4.40;;
20844;SDS011;10583;49.084;8.646;2023-05-24T02:20:28;4.23;;;4.23;;
20844;SDS011;10583;49.084;8.646;2023-05-24T02:22:55;4.07;;;4.07;;
20844;SDS011;10583;49.084;8.646;2023-05-24T02:25:22;4.33;;;4.33;;
20844;SDS011;10583;49.084;8.646;2023-05-24T02:27:50;4.77;;;4.77;;
20844;SDS011;10583;49.084;8.646;2023-05-24T02:30:17;3.93;;;3.93;;
20844;SDS011;10583;49.084;8.646;2023-05-24T02:32:44;3.77;;;3.77;;
20844;SDS011;10583;49.084;8.646;2023-05-24T02:35:12;4.27;;;4.27;;
20844;SDS011;10583;49.084;8.646;2023-05-24T02:37:39;4.67;;;4.67;;
20844;SDS011;10583;49.084;8.646;2023-05-24T02:40:07;3.77;;;3.77;;
20844;SDS011;10583;49.084;8.646;2023-05-24T02:42:34;4.30;;;4.30;;
20844;SDS011;10583;49.084;8.646;2023-05-24T02:45:01;4.10;;;4.10;;
20844;SDS011;10583;49.084;8.646;2023-05-24T02:47:28;4.67;;;4.67;;
20844;SDS011;10583;49.084;8.646;2023-05-24T02:49:55;4.07;;;4.07;;
20844;SDS011;10583;49.084;8.646;2023-05-24T02:52:24;4.07;;;4.07;;
20844;SDS011;10583;49.084;8.646;2023-05-24T02:54:51;4.67;;;4.67;;
20844;SDS011;10583;49.084;8.646;2023-05-24T02:57:18;4.23;;;4.23;;
20844;SDS011;10583;49.084;8.646;2023-05-24T02:59:45;4.67;;;4.67;;
20844;SDS011;10583;49.084;8.646;2023-05-24T03:02:12;4.50;;;4.50;;
20844;SDS011;10583;49.084;8.646;2023-05-24T03:04:39;4.70;;;4.70;;
20844;SDS011;10583;49.084;8.646;2023-05-24T03:07:06;4.70;;;4.70;;
20844;SDS011;10583;49.084;8.646;2023-05-24T03:09:34;4.33;;;4.33;;
20844;SDS011;10583;49.084;8.646;2023-05-24T03:12:01;5.23;;;5.23;;
20844;SDS011;10583;49.084;8.646;2023-05-24T03:14:28;5.00;;;5.00;;
20844;SDS011;10583;49.084;8.646;2023-05-24T03:16:55;4.63;;;4.63;;
20844;SDS011;10583;49.084;8.646;2023-05-24T03:19:22;4.90;;;4.90;;
20844;SDS011;10583;49.084;8.646;2023-05-24T03:21:49;4.73;;;4.73;;
20844;SDS011;10583;49.084;8.646;2023-05-24T03:24:16;4.60;;;4.60;;
20844;SDS011;10583;49.084;8.646;2023-05-24T03:26:44;4.43;;;4.37;;
20844;SDS011;10583;49.084;8.646;2023-05-24T03:29:11;4.43;;;4.40;;
20844;SDS011;10583;49.084;8.646;2023-05-24T03:31:39;4.70;;;4.70;;
20844;SDS011;10583;49.084;8.646;2023-05-24T03:34:06;4.80;;;4.80;;
20844;SDS011;10583;49.084;8.646;2023-05-24T03:36:33;4.37;;;4.37;;
20844;SDS011;10583;49.084;8.646;2023-05-24T03:39:00;4.57;;;4.57;;
20844;SDS011;10583;49.084;8.646;2023-05-24T03:41:28;4.20;;;4.20;;
20844;SDS011;10583;49.084;8.646;2023-05-24T03:43:56;4.53;;;4.53;;
20844;SDS011;10583;49.084;8.646;2023-05-24T03:46:23;4.23;;;4.23;;
20844;SDS011;10583;49.084;8.646;2023-05-24T03:48:50;4.10;;;4.10;;
20844;SDS011;10583;49.084;8.646;2023-05-24T03:51:17;4.70;;;4.70;;
20844;SDS011;10583;49.084;8.646;2023-05-24T03:53:44;4.03;;;4.03;;
20844;SDS011;10583;49.084;8.646;2023-05-24T03:56:11;4.63;;;4.63;;
20844;SDS011;10583;49.084;8.646;2023-05-24T03:58:38;5.00;;;5.00;;
20844;SDS011;10583;49.084;8.646;2023-05-24T04:01:06;4.70;;;4.70;;
20844;SDS011;10583;49.084;8.646;2023-05-24T04:03:33;4.30;;;4.30;;
20844;SDS011;10583;49.084;8.646;2023-05-24T04:06:00;4.93;;;4.93;;
20844;SDS011;10583;49.084;8.646;2023-05-24T04:08:27;4.50;;;4.50;;
20844;SDS011;10583;49.084;8.646;2023-05-24T04:10:55;4.67;;;4.67;;
20844;SDS011;10583;49.084;8.646;2023-05-24T04:13:22;4.50;;;4.50;;
20844;SDS011;10583;49.084;8.646;2023-05-24T04:15:49;4.40;;;4.40;;
20844;SDS011;10583;49.084;8.646;2023-05-24T04:18:17;4.30;;;4.30;;
20844;SDS011;10583;49.084;8.646;2023-05-24T04:20:44;4.17;;;4.17;;
20844;SDS011;10583;49.084;8.646;2023-05-24T04:23:11;4.73;;;4.73;;
20844;SDS011;10583;49.084;8.646;2023-05-24T04:25:38;4.70;;;4.70;;
20844;SDS011;10583;49.084;8.646;2023-05-24T04:28:05;4.50;;;4.50;;
20844;SDS011;10583;49.084;8.646;2023-05-24T04:30:32;4.33;;;4.33;;
20844;SDS011;10583;49.084;8.646;2023-05-24T04:33:00;4.40;;;4.40;;
20844;SDS011;10583;49.084;8.646;2023-05-24T04:35:29;4.87;;;4.87;;
20844;SDS011;10583;49.084;8.646;2023-05-24T04:37:56;4.40;;;4.40;;
20844;SDS011;10583;49.084;8.646;2023-05-24T04:40:23;4.07;;;4.07;;
20844;SDS011;10583;49.084;8.646;2023-05-24T04:42:50;5.90;;;5.83;;
20844;SDS011;10583;49.084;8.646;2023-05-24T04:45:17;5.27;;;5.27;;
20844;SDS011;10583;49.084;8.646;2023-05-24T04:47:44;4.73;;;4.73;;
20844;SDS011;10583;49.084;8.646;2023-05-24T04:50:11;4.80;;;4.80;;
20844;SDS011;10583;49.084;8.646;2023-05-24T04:52:40;5.47;;;5.47;;
20844;SDS011;10583;49.084;8.646;2023-05-24T04:55:07;4.73;;;4.73;;
20844;SDS011;10583;49.084;8.646;2023-05-24T04:57:35;4.63;;;4.63;;
20844;SDS011;10583;49.084;8.646;2023-05-24T05:00:02;4.70;;;4.70;;
20844;SDS011;10583;49.084;8.646;2023-05-24T05:02:31;4.60;;;4.60;;
20844;SDS011;10583;49.084;8.646;2023-05-24T05:04:58;4.67;;;4.67;;
20844;SDS011;10583;49.084;8.646;2023-05-24T05:07:25;4.10;;;4.10;;
20844;SDS011;10583;49.084;8.646;2023-05-24T05:09:53;3.90;;;3.90;;
20844;SDS011;10583;49.084;8.646;2023-05-24T05:12:21;4.40;;;4.40;;
20844;SDS011;10583;49.084;8.646;2023-05-24T05:14:48;4.20;;;4.20;;
20844;SDS011;10583;49.084;8.646;2023-05-24T05:17:14;4.17;;;4.17;;
20844;SDS011;10583;49.084;8.646;2023-05-24T05:19:41;3.93;;;3.93;;
20844;SDS011;10583;49.084;8.646;2023-05-24T05:22:08;3.90;;;3.90;;
20844;SDS011;10583;49.084;8.646;2023-05-24T05:24:36;4.00;;;4.00;;
20844;SDS011;10583;49.084;8.646;2023-05-24T05:27:04;4.00;;;4.00;;
20844;SDS011;10583;49.084;8.646;2023-05-24T05:29:32;4.20;;;4.20;;
20844;SDS011;10583;49.084;8.646;2023-05-24T05:31:59;3.97;;;3.97;;
20844;SDS011;10583;49.084;8.646;2023-05-24T05:34:26;4.37;;;4.37;;
20844;SDS011;10583;49.084;8.646;2023-05-24T05:36:53;3.77;;;3.77;;
20844;SDS011;10583;49.084;8.646;2023-05-24T05:39:20;3.90;;;3.90;;
20844;SDS011;10583;49.084;8.646;2023-05-24T05:41:47;4.40;;;4.40;;
20844;SDS011;10583;49.084;8.646;2023-05-24T05:44:15;3.77;;;3.77;;
20844;SDS011;10583;49.084;8.646;2023-05-24T05:46:42;3.83;;;3.83;;
20844;SDS011;10583;49.084;8.646;2023-05-24T05:49:10;3.80;;;3.80;;
20844;SDS011;10583;49.084;8.646;2023-05-24T05:51:37;3.20;;;3.20;;
20844;SDS011;10583;49.084;8.646;2023-05-24T05:54:04;3.70;;;3.70;;
20844;SDS011;10583;49.084;8.646;2023-05-24T05:56:32;4.20;;;4.20;;
20844;SDS011;10583;49.084;8.646;2023-05-24T05:59:05;4.53;;;4.43;;
20844;SDS011;10583;49.084;8.646;2023-05-24T06:01:33;4.13;;;4.13;;
20844;SDS011;10583;49.084;8.646;2023-05-24T06:04:00;5.10;;;5.00;;
20844;SDS011;10583;49.084;8.646;2023-05-24T06:06:27;4.50;;;4.40;;
20844;SDS011;10583;49.084;8.646;2023-05-24T06:08:55;4.43;;;4.43;;
20844;SDS011;10583;49.084;8.646;2023-05-24T06:11:22;3.90;;;3.90;;
20844;SDS011;10583;49.084;8.646;2023-05-24T06:13:51;4.10;;;4.10;;
20844;SDS011;10583;49.084;8.646;2023-05-24T06:16:18;4.10;;;4.10;;
20844;SDS011;10583;49.084;8.646;2023-05-24T06:18:46;3.87;;;3.87;;
20844;SDS011;10583;49.084;8.646;2023-05-24T06:21:14;4.17;;;4.17;;
20844;SDS011;10583;49.084;8.646;2023-05-24T06:23:41;3.87;;;3.87;;
20844;SDS011;10583;49.084;8.646;2023-05-24T06:26:08;4.33;;;4.33;;
20844;SDS011;10583;49.084;8.646;2023-05-24T06:28:35;4.03;;;4.03;;
20844;SDS011;10583;49.084;8.646;2023-05-24T06:31:02;3.47;;;3.47;;
20844;SDS011;10583;49.084;8.646;2023-05-24T06:33:29;3.63;;;3.63;;
20844;SDS011;10583;49.084;8.646;2023-05-24T06:35:58;3.60;;;3.60;;
20844;SDS011;10583;49.084;8.646;2023-05-24T06:38:25;4.07;;;4.07;;
20844;SDS011;10583;49.084;8.646;2023-05-24T06:40:52;4.03;;;4.03;;
20844;SDS011;10583;49.084;8.646;2023-05-24T06:43:19;3.93;;;3.93;;
20844;SDS011;10583;49.084;8.646;2023-05-24T06:45:46;3.70;;;3.70;;
20844;SDS011;10583;49.084;8.646;2023-05-24T06:48:13;3.70;;;3.70;;
20844;SDS011;10583;49.084;8.646;2023-05-24T06:50:40;3.90;;;3.90;;
20844;SDS011;10583;49.084;8.646;2023-05-24T06:53:09;4.47;;;4.47;;
20844;SDS011;10583;49.084;8.646;2023-05-24T06:55:35;3.90;;;3.90;;
20844;SDS011;10583;49.084;8.646;2023-05-24T06:58:02;4.10;;;4.10;;
20844;SDS011;10583;49.084;8.646;2023-05-24T07:00:30;4.30;;;4.30;;
20844;SDS011;10583;49.084;8.646;2023-05-24T07:02:58;4.30;;;4.30;;
20844;SDS011;10583;49.084;8.646;2023-05-24T07:05:25;3.83;;;3.83;;
20844;SDS011;10583;49.084;8.646;2023-05-24T07:07:52;3.97;;;3.97;;
20844;SDS011;10583;49.084;8.646;2023-05-24T07:10:20;4.47;;;4.43;;
20844;SDS011;10583;49.084;8.646;2023-05-24T07:12:47;4.60;;;4.60;;
20844;SDS011;10583;49.084;8.646;2023-05-24T07:15:14;4.63;;;4.63;;
20844;SDS011;10583;49.084;8.646;2023-05-24T07:17:41;3.60;;;3.60;;
20844;SDS011;10583;49.084;8.646;2023-05-24T07:20:08;3.97;;;3.97;;
20844;SDS011;10583;49.084;8.646;2023-05-24T07:22:37;3.93;;;3.90;;
20844;SDS011;10583;49.084;8.646;2023-05-24T07:25:05;4.03;;;4.03;;
20844;SDS011;10583;49.084;8.646;2023-05-24T07:27:34;3.70;;;3.70;;
20844;SDS011;10583;49.084;8.646;2023-05-24T07:30:01;3.77;;;3.77;;
20844;SDS011;10583;49.084;8.646;2023-05-24T07:32:29;4.40;;;4.40;;
20844;SDS011;10583;49.084;8.646;2023-05-24T07:34:57;3.73;;;3.73;;
20844;SDS011;10583;49.084;8.646;2023-05-24T07:37:24;4.20;;;4.20;;
20844;SDS011;10583;49.084;8.646;2023-05-24T07:39:51;4.47;;;4.47;;
20844;SDS011;10583;49.084;8.646;2023-05-24T07:42:18;4.10;;;4.10;;
20844;SDS011;10583;49.084;8.646;2023-05-24T07:44:46;3.47;;;3.47;;
20844;SDS011;10583;49.084;8.646;2023-05-24T07:47:13;3.83;;;3.80;;
20844;SDS011;10583;49.084;8.646;2023-05-24T07:49:40;4.20;;;4.20;;
20844;SDS011;10583;49.084;8.646;2023-05-24T07:52:07;4.23;;;4.23;;
20844;SDS011;10583;49.084;8.646;2023-05-24T07:54:34;4.10;;;4.10;;
20844;SDS011;10583;49.084;8.646;2023-05-24T07:57:01;3.90;;;3.90;;
20844;SDS011;10583;49.084;8.646;2023-05-24T07:59:28;4.27;;;4.17;;
20844;SDS011;10583;49.084;8.646;2023-05-24T08:01:56;4.37;;;4.27;;
20844;SDS011;10583;49.084;8.646;2023-05-24T08:04:28;4.00;;;4.00;;
20844;SDS011;10583;49.084;8.646;2023-05-24T08:06:55;3.90;;;3.90;;
20844;SDS011;10583;49.084;8.646;2023-05-24T08:09:21;4.20;;;4.20;;
20844;SDS011;10583;49.084;8.646;2023-05-24T08:11:48;4.00;;;4.00;;
20844;SDS011;10583;49.084;8.646;2023-05-24T08:14:15;4.27;;;4.27;;
20844;SDS011;10583;49.084;8.646;2023-05-24T08:16:42;3.83;;;3.83;;
20844;SDS011;10583;49.084;8.646;2023-05-24T08:19:10;4.03;;;4.00;;
20844;SDS011;10583;49.084;8.646;2023-05-24T08:21:36;4.40;;;4.40;;
20844;SDS011;10583;49.084;8.646;2023-05-24T08:24:03;3.37;;;3.37;;
20844;SDS011;10583;49.084;8.646;2023-05-24T08:26:30;4.40;;;4.30;;
20844;SDS011;10583;49.084;8.646;2023-05-24T08:28:57;4.13;;;4.10;;
20844;SDS011;10583;49.084;8.646;2023-05-24T08:31:23;4.07;;;4.07;;
20844;SDS011;10583;49.084;8.646;2023-05-24T08:33:50;3.83;;;3.83;;
20844;SDS011;10583;49.084;8.646;2023-05-24T08:36:18;4.37;;;4.37;;
20844;SDS011;10583;49.084;8.646;2023-05-24T08:38:45;4.10;;;4.10;;
20844;SDS011;10583;49.084;8.646;2023-05-24T08:41:12;3.90;;;3.90;;
20844;SDS011;10583;49.084;8.646;2023-05-24T08:43:38;3.90;;;3.90;;
20844;SDS011;10583;49.084;8.646;2023-05-24T08:46:07;4.07;;;4.07;;
20844;SDS011;10583;49.084;8.646;2023-05-24T08:48:38;3.77;;;3.77;;
20844;SDS011;10583;49.084;8.646;2023-05-24T08:51:10;3.73;;;3.73;;
20844;SDS011;10583;49.084;8.646;2023-05-24T08:53:38;3.67;;;3.67;;
20844;SDS011;10583;49.084;8.646;2023-05-24T08:56:13;3.83;;;3.83;;
20844;SDS011;10583;49.084;8.646;2023-05-24T08:58:41;4.13;;;4.13;;
20844;SDS011;10583;49.084;8.646;2023-05-24T09:01:08;4.13;;;4.13;;
20844;SDS011;10583;49.084;8.646;2023-05-24T09:03:35;4.47;;;4.47;;
20844;SDS011;10583;49.084;8.646;2023-05-24T09:06:02;3.93;;;3.93;;
20844;SDS011;10583;49.084;8.646;2023-05-24T09:08:30;3.90;;;3.90;;
20844;SDS011;10583;49.084;8.646;2023-05-24T09:11:00;4.00;;;4.00;;
20844;SDS011;10583;49.084;8.646;2023-05-24T09:13:28;3.57;;;3.57;;
20844;SDS011;10583;49.084;8.646;2023-05-24T09:15:57;3.80;;;3.80;;
20844;SDS011;10583;49.084;8.646;2023-05-24T09:18:24;3.53;;;3.53;;
20844;SDS011;10583;49.084;8.646;2023-05-24T09:20:51;4.10;;;4.10;;
20844;SDS011;10583;49.084;8.646;2023-05-24T09:23:18;3.83;;;3.83;;
20844;SDS011;10583;49.084;8.646;2023-05-24T09:25:45;4.60;;;4.60;;
20844;SDS011;10583;49.084;8.646;2023-05-24T09:28:15;3.60;;;3.60;;
20844;SDS011;10583;49.084;8.646;2023-05-24T09:30:45;4.33;;;4.23;;
20844;SDS011;10583;49.084;8.646;2023-05-24T09:33:22;3.80;;;3.80;;
20844;SDS011;10583;49.084;8.646;2023-05-24T09:35:54;3.77;;;3.77;;
20844;SDS011;10583;49.084;8.646;2023-05-24T09:38:23;4.07;;;4.07;;
20844;SDS011;10583;49.084;8.646;2023-05-24T09:40:57;3.77;;;3.77;;
20844;SDS011;10583;49.084;8.646;2023-05-24T09:43:26;4.13;;;4.13;;
20844;SDS011;10583;49.084;8.646;2023-05-24T09:45:55;4.10;;;4.10;;
20844;SDS011;10583;49.084;8.646;2023-05-24T09:48:24;3.87;;;3.87;;
20844;SDS011;10583;49.084;8.646;2023-05-24T09:51:04;3.80;;;3.80;;
20844;SDS011;10583;49.084;8.646;2023-05-24T09:53:33;3.87;;;3.87;;
20844;SDS011;10583;49.084;8.646;2023-05-24T09:56:02;3.63;;;3.63;;
20844;SDS011;10583;49.084;8.646;2023-05-24T09:58:31;3.50;;;3.50;;
20844;SDS011;10583;49.084;8.646;2023-05-24T10:01:02;3.40;;;3.40;;
20844;SDS011;10583;49.084;8.646;2023-05-24T10:03:30;3.27;;;3.27;;
20844;SDS011;10583;49.084;8.646;2023-05-24T10:05:57;4.00;;;4.00;;
20844;SDS011;10583;49.084;8.646;2023-05-24T10:08:24;3.33;;;3.33;;
20844;SDS011;10583;49.084;8.646;2023-05-24T10:10:52;3.50;;;3.50;;
20844;SDS011;10583;49.084;8.646;2023-05-24T10:13:21;3.73;;;3.73;;
20844;SDS011;10583;49.084;8.646;2023-05-24T10:15:49;3.53;;;3.53;;
20844;SDS011;10583;49.084;8.646;2023-05-24T10:18:16;3.80;;;3.80;;
20844;SDS011;10583;49.084;8.646;2023-05-24T10:20:43;3.80;;;3.80;;
20844;SDS011;10583;49.084;8.646;2023-05-24T10:23:10;3.03;;;3.03;;
20844;SDS011;10583;49.084;8.646;2023-05-24T10:25:44;3.65;;;3.65;;
20844;SDS011;10583;49.084;8.646;2023-05-24T10:28:15;3.83;;;3.83;;
20844;SDS011;10583;49.084;8.646;2023-05-24T10:30:46;3.80;;;3.80;;
20844;SDS011;10583;49.084;8.646;2023-05-24T10:33:21;3.30;;;3.30;;
20844;SDS011;10583;49.084;8.646;2023-05-24T10:35:49;3.30;;;3.30;;
20844;SDS011;10583;49.084;8.646;2023-05-24T10:38:18;3.47;;;3.47;;
20844;SDS011;10583;49.084;8.646;2023-05-24T10:40:47;3.20;;;3.20;;
20844;SDS011;10583;49.084;8.646;2023-05-24T10:43:15;3.17;;;3.17;;
20844;SDS011;10583;49.084;8.646;2023-05-24T10:45:42;2.85;;;2.85;;
20844;SDS011;10583;49.084;8.646;2023-05-24T10:48:31;3.28;;;3.28;;
20844;SDS011;10583;49.084;8.646;2023-05-24T10:54:03;3.00;;;3.00;;
20844;SDS011;10583;49.084;8.646;2023-05-24T10:56:38;3.58;;;3.58;;
20844;SDS011;10583;49.084;8.646;2023-05-24T10:59:06;3.28;;;3.28;;
20844;SDS011;10583;49.084;8.646;2023-05-24T11:01:32;3.28;;;3.28;;
20844;SDS011;10583;49.084;8.646;2023-05-24T11:04:07;3.05;;;3.05;;
20844;SDS011;10583;49.084;8.646;2023-05-24T11:06:43;3.85;;;3.85;;
20844;SDS011;10583;49.084;8.646;2023-05-24T11:09:12;3.47;;;3.47;;
20844;SDS011;10583;49.084;8.646;2023-05-24T11:11:42;3.53;;;3.53;;
20844;SDS011;10583;49.084;8.646;2023-05-24T11:14:10;3.20;;;3.20;;
20844;SDS011;10583;49.084;8.646;2023-05-24T11:16:37;2.72;;;2.72;;
20844;SDS011;10583;49.084;8.646;2023-05-24T11:19:12;4.00;;;4.00;;
20844;SDS011;10583;49.084;8.646;2023-05-24T11:21:42;2.88;;;2.88;;
20844;SDS011;10583;49.084;8.646;2023-05-24T11:24:10;3.50;;;3.50;;
20844;SDS011;10583;49.084;8.646;2023-05-24T11:26:37;3.50;;;3.50;;
20844;SDS011;10583;49.084;8.646;2023-05-24T11:29:05;2.90;;;2.90;;
20844;SDS011;10583;49.084;8.646;2023-05-24T11:31:32;3.25;;;3.25;;
20844;SDS011;10583;49.084;8.646;2023-05-24T11:34:03;3.05;;;3.05;;
20844;SDS011;10583;49.084;8.646;2023-05-24T11:36:32;2.88;;;2.88;;
20844;SDS011;10583;49.084;8.646;2023-05-24T11:39:00;3.00;;;3.00;;
20844;SDS011;10583;49.084;8.646;2023-05-24T11:41:33;2.97;;;2.97;;
20844;SDS011;10583;49.084;8.646;2023-05-24T11:44:01;2.65;;;2.65;;
20844;SDS011;10583;49.084;8.646;2023-05-24T11:46:28;3.30;;;3.30;;
20844;SDS011;10583;49.084;8.646;2023-05-24T11:48:55;3.42;;;3.42;;
20844;SDS011;10583;49.084;8.646;2023-05-24T11:51:26;3.58;;;3.58;;
20844;SDS011;10583;49.084;8.646;2023-05-24T11:53:55;2.78;;;2.78;;
20844;SDS011;10583;49.084;8.646;2023-05-24T11:56:23;2.95;;;2.95;;
20844;SDS011;10583;49.084;8.646;2023-05-24T11:58:52;3.10;;;3.10;;
20844;SDS011;10583;49.084;8.646;2023-05-24T12:01:28;3.08;;;3.08;;
20844;SDS011;10583;49.084;8.646;2023-05-24T12:03:54;3.42;;;3.42;;
20844;SDS011;10583;49.084;8.646;2023-05-24T12:06:21;3.17;;;3.17;;
20844;SDS011;10583;49.084;8.646;2023-05-24T12:08:48;3.40;;;3.40;;
20844;SDS011;10583;49.084;8.646;2023-05-24T12:11:16;3.10;;;3.10;;
20844;SDS011;10583;49.084;8.646;2023-05-24T12:13:43;3.65;;;3.65;;
20844;SDS011;10583;49.084;8.646;2023-05-24T12:16:10;2.97;;;2.97;;
20844;SDS011;10583;49.084;8.646;2023-05-24T12:18:38;3.13;;;3.13;;
20844;SDS011;10583;49.084;8.646;2023-05-24T12:21:07;2.97;;;2.97;;
20844;SDS011;10583;49.084;8.646;2023-05-24T12:23:35;2.88;;;2.88;;
20844;SDS011;10583;49.084;8.646;2023-05-24T12:26:03;3.30;;;3.30;;
20844;SDS011;10583;49.084;8.646;2023-05-24T12:28:36;2.80;;;2.80;;
20844;SDS011;10583;49.084;8.646;2023-05-24T12:31:03;2.92;;;2.92;;
20844;SDS011;10583;49.084;8.646;2023-05-24T12:33:31;2.88;;;2.88;;
20844;SDS011;10583;49.084;8.646;2023-05-24T12:35:58;2.75;;;2.75;;
20844;SDS011;10583;49.084;8.646;2023-05-24T12:38:25;3.28;;;3.28;;
20844;SDS011;10583;49.084;8.646;2023-05-24T12:40:52;3.28;;;3.28;;
20844;SDS011;10583;49.084;8.646;2023-05-24T12:43:19;2.55;;;2.55;;
20844;SDS011;10583;49.084;8.646;2023-05-24T12:45:47;2.95;;;2.95;;
20844;SDS011;10583;49.084;8.646;2023-05-24T12:48:14;2.85;;;2.85;;
20844;SDS011;10583;49.084;8.646;2023-05-24T12:50:41;3.08;;;3.08;;
20844;SDS011;10583;49.084;8.646;2023-05-24T12:53:08;3.38;;;3.38;;
20844;SDS011;10583;49.084;8.646;2023-05-24T12:55:35;3.35;;;3.35;;
20844;SDS011;10583;49.084;8.646;2023-05-24T12:58:02;2.75;;;2.75;;
20844;SDS011;10583;49.084;8.646;2023-05-24T13:00:31;3.03;;;3.03;;
20844;SDS011;10583;49.084;8.646;2023-05-24T13:03:00;2.97;;;2.97;;
20844;SDS011;10583;49.084;8.646;2023-05-24T13:05:27;3.28;;;3.28;;
20844;SDS011;10583;49.084;8.646;2023-05-24T13:07:54;2.90;;;2.90;;
20844;SDS011;10583;49.084;8.646;2023-05-24T13:10:22;2.63;;;2.63;;
20844;SDS011;10583;49.084;8.646;2023-05-24T13:12:49;2.95;;;2.95;;
20844;SDS011;10583;49.084;8.646;2023-05-24T13:15:16;2.80;;;2.80;;
20844;SDS011;10583;49.084;8.646;2023-05-24T13:17:44;2.90;;;2.90;;
20844;SDS011;10583;49.084;8.646;2023-05-24T13:20:13;2.70;;;2.70;;
20844;SDS011;10583;49.084;8.646;2023-05-24T13:22:42;2.90;;;2.90;;
20844;SDS011;10583;49.084;8.646;2023-05-24T13:25:09;2.80;;;2.80;;
20844;SDS011;10583;49.084;8.646;2023-05-24T13:27:36;3.53;;;3.53;;
20844;SDS011;10583;49.084;8.646;2023-05-24T13:30:03;2.58;;;2.58;;
20844;SDS011;10583;49.084;8.646;2023-05-24T13:32:31;2.97;;;2.97;;
20844;SDS011;10583;49.084;8.646;2023-05-24T13:34:57;3.05;;;3.05;;
20844;SDS011;10583;49.084;8.646;2023-05-24T13:37:26;3.13;;;3.13;;
20844;SDS011;10583;49.084;8.646;2023-05-24T13:39:52;5.95;;;5.85;;
20844;SDS011;10583;49.084;8.646;2023-05-24T13:42:20;2.78;;;2.78;;
20844;SDS011;10583;49.084;8.646;2023-05-24T13:44:47;3.17;;;3.17;;
20844;SDS011;10583;49.084;8.646;2023-05-24T13:47:14;3.15;;;3.15;;
20844;SDS011;10583;49.084;8.646;2023-05-24T13:49:43;3.10;;;3.10;;
20844;SDS011;10583;49.084;8.646;2023-05-24T13:52:11;2.47;;;2.47;;
20844;SDS011;10583;49.084;8.646;2023-05-24T13:54:39;2.78;;;2.78;;
20844;SDS011;10583;49.084;8.646;2023-05-24T13:57:07;2.92;;;2.92;;
20844;SDS011;10583;49.084;8.646;2023-05-24T13:59:34;2.53;;;2.53;;
20844;SDS011;10583;49.084;8.646;2023-05-24T14:02:00;2.50;;;2.50;;
20844;SDS011;10583;49.084;8.646;2023-05-24T14:04:27;2.55;;;2.55;;
20844;SDS011;10583;49.084;8.646;2023-05-24T14:06:54;2.55;;;2.55;;
20844;SDS011;10583;49.084;8.646;2023-05-24T14:09:21;2.35;;;2.35;;
20844;SDS011;10583;49.084;8.646;2023-05-24T14:11:51;2.78;;;2.78;;
20844;SDS011;10583;49.084;8.646;2023-05-24T14:14:18;2.33;;;2.33;;
20844;SDS011;10583;49.084;8.646;2023-05-24T14:16:45;3.00;;;3.00;;
20844;SDS011;10583;49.084;8.646;2023-05-24T14:19:15;2.42;;;2.42;;
20844;SDS011;10583;49.084;8.646;2023-05-24T14:21:42;2.45;;;2.45;;
20844;SDS011;10583;49.084;8.646;2023-05-24T14:24:09;2.42;;;2.42;;
20844;SDS011;10583;49.084;8.646;2023-05-24T14:26:35;2.70;;;2.70;;
20844;SDS011;10583;49.084;8.646;2023-05-24T14:29:04;2.45;;;2.45;;
20844;SDS011;10583;49.084;8.646;2023-05-24T14:31:31;2.72;;;2.72;;
20844;SDS011;10583;49.084;8.646;2023-05-24T14:33:59;3.13;;;3.13;;
20844;SDS011;10583;49.084;8.646;2023-05-24T14:36:26;2.45;;;2.45;;
20844;SDS011;10583;49.084;8.646;2023-05-24T14:38:53;2.75;;;2.75;;
20844;SDS011;10583;49.084;8.646;2023-05-24T14:41:19;2.60;;;2.60;;
20844;SDS011;10583;49.084;8.646;2023-05-24T14:43:46;2.03;;;2.03;;
20844;SDS011;10583;49.084;8.646;2023-05-24T14:46:14;2.65;;;2.65;;
20844;SDS011;10583;49.084;8.646;2023-05-24T14:48:41;2.40;;;2.40;;
20844;SDS011;10583;49.084;8.646;2023-05-24T14:51:08;2.67;;;2.67;;
20844;SDS011;10583;49.084;8.646;2023-05-24T14:53:34;2.92;;;2.92;;
20844;SDS011;10583;49.084;8.646;2023-05-24T14:56:01;2.47;;;2.47;;
20844;SDS011;10583;49.084;8.646;2023-05-24T14:58:30;3.00;;;3.00;;
20844;SDS011;10583;49.084;8.646;2023-05-24T15:00:56;2.35;;;2.35;;